Eskridge, Kansas
Current Conditions -  °F | °C
As of 3:53 PM on Saturday 25 Oct 2014 (Local Time) from KFOE Reporting Station
Clear Clear  
Wind Chill: 81°   Ceiling: Unl
Heat Index: 82°   Visibility: 10mi
Dew Point: 62°   Wind: 6mph
Humidity: 52%   Direction: 120°ESE
Pressure: 30.02"   Gusts: NA
Location:  38.86°N, 96.11°W
Report Text: KFOE 252053Z 12005KT 10SM CLR 27/17 A3002 RMK AO2 SLP157 T02720167 56013
Loading
Personal Weather Stations






























Interactive Weather Map New forecast layout! Learn more

10-Day Weather Forecast

Advertisements
Track Severe Weather on mobile